Time;durP1;ratioP1;P1;durP2;ratioP2;P2;SDS_P1;SDS_P2;PMS_P1;PMS_P2;Temp;Humidity;BMP_temperature;BMP_pressure;BME280_temperature;BME280_humidity;BME280_pressure;Samples;Min_cycle;Max_cycle;Signal;HPM_P1;HPM_P2
2023/09/18 00:00:50;;;;;;;9.40;6.90;;;;;;;-128.00;-1.00;-1.00;105700;1250;1005096;-80
2023/09/18 00:03:36;;;;;;;10.20;7.90;;;;;;;-128.00;-1.00;-1.00;105563;1250;1047804;-80
2023/09/18 00:06:03;;;;;;;10.70;7.00;;;;;;;-128.00;-1.00;-1.00;105621;1251;1005012;-80
2023/09/18 00:08:29;;;;;;;14.40;7.20;;;;;;;-128.00;-1.00;-1.00;105620;1251;1005024;-80
2023/09/18 00:10:55;;;;;;;10.50;7.60;;;;;;;-128.00;-1.00;-1.00;105578;1251;1004829;-80
2023/09/18 00:13:22;;;;;;;9.60;7.30;;;;;;;-128.00;-1.00;-1.00;105608;1252;1005059;-80
2023/09/18 00:15:48;;;;;;;9.00;6.90;;;;;;;-128.00;-1.00;-1.00;105631;1251;1003876;-80
2023/09/18 00:18:15;;;;;;;9.20;7.50;;;;;;;-128.00;-1.00;-1.00;105644;1251;1003493;-80
2023/09/18 00:20:42;;;;;;;9.40;6.40;;;;;;;-128.00;-1.00;-1.00;105615;1252;1003395;-80
2023/09/18 00:23:09;;;;;;;9.90;6.90;;;;;;;-128.00;-1.00;-1.00;105490;1251;1004074;-80
2023/09/18 00:25:36;;;;;;;18.70;7.30;;;;;;;-128.00;-1.00;-1.00;105590;1251;1004260;-80
2023/09/18 00:28:04;;;;;;;11.30;7.10;;;;;;;-128.00;-1.00;-1.00;105559;1251;1005131;-80
2023/09/18 00:30:30;;;;;;;12.20;6.50;;;;;;;-128.00;-1.00;-1.00;105605;1251;1004113;-80
2023/09/18 00:32:56;;;;;;;12.30;7.10;;;;;;;-128.00;-1.00;-1.00;105616;1251;1004422;-80
2023/09/18 00:35:23;;;;;;;10.90;6.90;;;;;;;-128.00;-1.00;-1.00;105663;1250;1004607;-80
2023/09/18 00:37:50;;;;;;;8.60;6.70;;;;;;;-128.00;-1.00;-1.00;105591;1251;1004248;-80
2023/09/18 00:40:16;;;;;;;9.20;7.30;;;;;;;-128.00;-1.00;-1.00;105610;1251;1004565;-80
2023/09/18 00:42:43;;;;;;;10.10;7.20;;;;;;;-128.00;-1.00;-1.00;105618;1251;1003997;-80
2023/09/18 00:45:09;;;;;;;9.10;6.60;;;;;;;-128.00;-1.00;-1.00;105581;1251;1004626;-80
2023/09/18 00:47:36;;;;;;;9.90;7.30;;;;;;;-128.00;-1.00;-1.00;105612;1251;1004613;-80
2023/09/18 00:50:03;;;;;;;11.00;8.20;;;;;;;-128.00;-1.00;-1.00;105523;1251;1003903;-80
2023/09/18 00:52:29;;;;;;;9.90;6.70;;;;;;;-128.00;-1.00;-1.00;105489;1251;1005096;-80
2023/09/18 00:54:56;;;;;;;9.70;6.70;;;;;;;-128.00;-1.00;-1.00;105633;1251;1004973;-80
2023/09/18 00:57:22;;;;;;;11.50;6.50;;;;;;;-128.00;-1.00;-1.00;105715;1251;1003859;-80
2023/09/18 00:59:49;;;;;;;9.30;7.30;;;;;;;-128.00;-1.00;-1.00;105514;1251;1004076;-80
2023/09/18 01:02:15;;;;;;;13.40;6.90;;;;;;;-128.00;-1.00;-1.00;105605;1252;1004996;-80
2023/09/18 01:04:43;;;;;;;8.90;7.20;;;;;;;-128.00;-1.00;-1.00;105669;1251;1004641;-80
2023/09/18 01:07:10;;;;;;;10.60;6.60;;;;;;;-128.00;-1.00;-1.00;105538;1251;1003960;-80
2023/09/18 01:09:37;;;;;;;12.00;6.90;;;;;;;-128.00;-1.00;-1.00;105640;1250;1003981;-80
2023/09/18 01:12:31;;;;;;;8.50;6.40;;;;;;;-128.00;-1.00;-1.00;105489;1251;1004125;-79
2023/09/18 01:15:14;;;;;;;8.60;5.90;;;;;;;-128.00;-1.00;-1.00;105563;1251;1046774;-80
2023/09/18 01:17:40;;;;;;;7.90;6.30;;;;;;;-128.00;-1.00;-1.00;105582;1251;1047377;-80
2023/09/18 01:20:10;;;;;;;11.00;6.70;;;;;;;-128.00;-1.00;-1.00;105617;1251;1003951;-80
2023/09/18 01:22:37;;;;;;;8.20;6.90;;;;;;;-128.00;-1.00;-1.00;105650;1251;1058937;-80
2023/09/18 01:25:05;;;;;;;10.50;7.00;;;;;;;-128.00;-1.00;-1.00;105489;1251;1004305;-80
2023/09/18 01:27:32;;;;;;;9.60;7.40;;;;;;;-128.00;-1.00;-1.00;105589;1256;1046391;-80
2023/09/18 01:29:59;;;;;;;8.10;6.60;;;;;;;-128.00;-1.00;-1.00;105608;1251;1004700;-80
2023/09/18 01:32:27;;;;;;;12.50;6.70;;;;;;;-128.00;-1.00;-1.00;105625;1251;1003954;-80
2023/09/18 01:34:55;;;;;;;10.80;7.20;;;;;;;-128.00;-1.00;-1.00;105621;1251;1057282;-80
2023/09/18 01:37:26;;;;;;;8.00;6.70;;;;;;;-128.00;-1.00;-1.00;105560;1251;1003774;-79
2023/09/18 01:39:53;;;;;;;10.70;6.70;;;;;;;-128.00;-1.00;-1.00;105637;1251;1046050;-80
2023/09/18 01:42:19;;;;;;;11.30;6.90;;;;;;;-128.00;-1.00;-1.00;105519;1256;1004012;-80
2023/09/18 01:44:47;;;;;;;8.70;7.20;;;;;;;-128.00;-1.00;-1.00;105532;1251;1003760;-79
2023/09/18 01:47:18;;;;;;;12.50;7.00;;;;;;;-128.00;-1.00;-1.00;105608;1251;1004764;-80
2023/09/18 01:49:46;;;;;;;9.90;7.00;;;;;;;-128.00;-1.00;-1.00;105631;1250;1059055;-80
2023/09/18 01:52:12;;;;;;;9.40;7.30;;;;;;;-128.00;-1.00;-1.00;105722;1250;1004408;-79
2023/09/18 01:54:38;;;;;;;9.50;7.50;;;;;;;-128.00;-1.00;-1.00;105719;1251;1004846;-79
2023/09/18 01:57:07;;;;;;;10.60;7.30;;;;;;;-128.00;-1.00;-1.00;105732;1250;1004701;-80
2023/09/18 01:59:33;;;;;;;10.00;7.20;;;;;;;-128.00;-1.00;-1.00;105716;1251;1005460;-79
2023/09/18 02:02:03;;;;;;;14.70;7.60;;;;;;;-128.00;-1.00;-1.00;105706;1250;1004445;-79
2023/09/18 02:04:30;;;;;;;11.90;7.60;;;;;;;-128.00;-1.00;-1.00;105642;1253;1046232;-79
2023/09/18 02:06:57;;;;;;;11.30;7.60;;;;;;;-128.00;-1.00;-1.00;105601;1252;1004509;-80
2023/09/18 02:09:24;;;;;;;9.40;7.20;;;;;;;-128.00;-1.00;-1.00;105582;1250;1003414;-79
2023/09/18 02:11:50;;;;;;;10.40;7.40;;;;;;;-128.00;-1.00;-1.00;105489;1251;1003623;-79
2023/09/18 02:14:17;;;;;;;10.50;7.40;;;;;;;-128.00;-1.00;-1.00;105442;1251;1004273;-80
2023/09/18 02:16:44;;;;;;;13.80;8.50;;;;;;;-128.00;-1.00;-1.00;105587;1251;1004558;-80
2023/09/18 02:19:11;;;;;;;10.50;7.70;;;;;;;-128.00;-1.00;-1.00;105489;1251;1004457;-80
2023/09/18 02:21:37;;;;;;;10.30;7.80;;;;;;;-128.00;-1.00;-1.00;105437;1251;1003833;-80
2023/09/18 02:24:04;;;;;;;12.20;7.80;;;;;;;-128.00;-1.00;-1.00;105581;1251;1003934;-80
2023/09/18 02:26:31;;;;;;;8.90;6.60;;;;;;;-128.00;-1.00;-1.00;105582;1251;1003561;-80
2023/09/18 02:28:59;;;;;;;10.20;8.10;;;;;;;-128.00;-1.00;-1.00;105587;1251;1003645;-80
2023/09/18 02:31:25;;;;;;;9.90;6.60;;;;;;;-128.00;-1.00;-1.00;105588;1251;1004797;-79
2023/09/18 02:33:51;;;;;;;11.70;7.60;;;;;;;-128.00;-1.00;-1.00;105603;1256;1004342;-79
2023/09/18 02:36:18;;;;;;;12.80;8.50;;;;;;;-128.00;-1.00;-1.00;105596;1251;1003572;-80
2023/09/18 02:38:44;;;;;;;10.50;6.80;;;;;;;-128.00;-1.00;-1.00;105608;1251;1004980;-79
2023/09/18 02:41:11;;;;;;;10.70;7.20;;;;;;;-128.00;-1.00;-1.00;105618;1251;1003803;-79
2023/09/18 02:43:37;;;;;;;9.20;6.80;;;;;;;-128.00;-1.00;-1.00;105612;1251;1005277;-79
2023/09/18 02:46:05;;;;;;;13.40;8.10;;;;;;;-128.00;-1.00;-1.00;105611;1251;1004436;-79
2023/09/18 02:48:32;;;;;;;13.70;7.40;;;;;;;-128.00;-1.00;-1.00;105543;1255;1003165;-79
2023/09/18 02:51:01;;;;;;;14.40;8.20;;;;;;;-128.00;-1.00;-1.00;105622;1251;1003800;-80
2023/09/18 02:53:28;;;;;;;10.50;7.50;;;;;;;-128.00;-1.00;-1.00;105667;1249;1046065;-79
2023/09/18 02:55:55;;;;;;;12.70;7.10;;;;;;;-128.00;-1.00;-1.00;105699;1251;1005082;-79
2023/09/18 02:58:22;;;;;;;9.40;6.90;;;;;;;-128.00;-1.00;-1.00;105733;1251;1004200;-79
2023/09/18 03:00:49;;;;;;;10.20;7.60;;;;;;;-128.00;-1.00;-1.00;105690;1251;1004618;-79
2023/09/18 03:03:16;;;;;;;9.80;7.40;;;;;;;-128.00;-1.00;-1.00;105681;1250;1004400;-79
2023/09/18 03:05:43;;;;;;;10.80;7.20;;;;;;;-128.00;-1.00;-1.00;105609;1251;1004278;-79
2023/09/18 03:08:13;;;;;;;10.40;7.30;;;;;;;-128.00;-1.00;-1.00;105582;1251;1003876;-79
2023/09/18 03:10:41;;;;;;;10.40;7.40;;;;;;;-128.00;-1.00;-1.00;105611;1251;1062560;-79
2023/09/18 03:13:09;;;;;;;9.10;7.20;;;;;;;-128.00;-1.00;-1.00;105587;1251;1004850;-79
2023/09/18 03:15:35;;;;;;;9.30;8.20;;;;;;;-128.00;-1.00;-1.00;105611;1251;1004853;-79
2023/09/18 03:18:02;;;;;;;11.30;7.60;;;;;;;-128.00;-1.00;-1.00;105567;1251;1004617;-79
2023/09/18 03:20:28;;;;;;;13.70;7.90;;;;;;;-128.00;-1.00;-1.00;105387;1251;1004055;-79
2023/09/18 03:22:56;;;;;;;11.60;8.10;;;;;;;-128.00;-1.00;-1.00;105606;1251;1003738;-79
2023/09/18 03:25:23;;;;;;;10.20;6.80;;;;;;;-128.00;-1.00;-1.00;105562;1251;1004291;-79
2023/09/18 03:27:51;;;;;;;11.30;7.70;;;;;;;-128.00;-1.00;-1.00;105553;1251;1005584;-79
2023/09/18 03:30:18;;;;;;;14.50;7.60;;;;;;;-128.00;-1.00;-1.00;105567;1251;1005040;-79
2023/09/18 03:32:48;;;;;;;11.30;7.20;;;;;;;-128.00;-1.00;-1.00;105513;1251;1004358;-79
2023/09/18 03:35:17;;;;;;;10.00;7.20;;;;;;;-128.00;-1.00;-1.00;105612;1251;1063707;-79
2023/09/18 03:37:45;;;;;;;13.10;8.20;;;;;;;-128.00;-1.00;-1.00;105619;1251;1058228;-79
2023/09/18 03:40:11;;;;;;;13.00;8.60;;;;;;;-128.00;-1.00;-1.00;105592;1251;1004167;-79
2023/09/18 03:42:38;;;;;;;14.40;8.30;;;;;;;-128.00;-1.00;-1.00;105551;1251;1004597;-79
2023/09/18 03:45:08;;;;;;;12.50;7.50;;;;;;;-128.00;-1.00;-1.00;105622;1251;1003796;-79
2023/09/18 03:47:35;;;;;;;14.30;7.30;;;;;;;-128.00;-1.00;-1.00;105592;1250;1062150;-79
2023/09/18 03:50:02;;;;;;;11.80;8.20;;;;;;;-128.00;-1.00;-1.00;105619;1251;1003735;-79
2023/09/18 03:52:29;;;;;;;12.10;8.20;;;;;;;-128.00;-1.00;-1.00;105672;1250;1004545;-79
2023/09/18 03:54:56;;;;;;;12.60;7.50;;;;;;;-128.00;-1.00;-1.00;105567;1251;1004718;-79
2023/09/18 03:57:22;;;;;;;11.40;8.20;;;;;;;-128.00;-1.00;-1.00;105693;1250;1004214;-79
2023/09/18 03:59:48;;;;;;;10.60;7.60;;;;;;;-128.00;-1.00;-1.00;105678;1251;1005059;-79
2023/09/18 04:02:15;;;;;;;11.40;7.60;;;;;;;-128.00;-1.00;-1.00;105672;1251;1004475;-79
2023/09/18 04:04:41;;;;;;;14.40;7.90;;;;;;;-128.00;-1.00;-1.00;105596;1251;1005399;-79
2023/09/18 04:07:08;;;;;;;16.20;8.30;;;;;;;-128.00;-1.00;-1.00;105571;1251;1004594;-79
2023/09/18 04:09:35;;;;;;;11.30;8.50;;;;;;;-128.00;-1.00;-1.00;105568;1251;1004209;-79
2023/09/18 04:12:05;;;;;;;11.20;9.20;;;;;;;-128.00;-1.00;-1.00;105485;1251;1004187;-80
2023/09/18 04:14:31;;;;;;;12.30;9.60;;;;;;;-128.00;-1.00;-1.00;105610;1251;1057839;-79
2023/09/18 04:16:58;;;;;;;11.40;7.90;;;;;;;-128.00;-1.00;-1.00;105600;1250;1004649;-80
2023/09/18 04:19:24;;;;;;;13.30;8.00;;;;;;;-128.00;-1.00;-1.00;105528;1251;1005258;-80
2023/09/18 04:21:51;;;;;;;17.60;8.10;;;;;;;-128.00;-1.00;-1.00;105507;1251;1004791;-79
2023/09/18 04:24:18;;;;;;;23.90;9.20;;;;;;;-128.00;-1.00;-1.00;105462;1251;1004165;-79
2023/09/18 04:26:45;;;;;;;14.60;9.00;;;;;;;-128.00;-1.00;-1.00;105564;1251;1004304;-79
2023/09/18 04:29:11;;;;;;;16.60;10.30;;;;;;;-128.00;-1.00;-1.00;105581;1251;1004049;-79
2023/09/18 04:31:38;;;;;;;16.10;11.10;;;;;;;-128.00;-1.00;-1.00;105577;1251;1004508;-79
2023/09/18 04:34:04;;;;;;;12.30;9.70;;;;;;;-128.00;-1.00;-1.00;105526;1251;1004885;-80
2023/09/18 04:36:31;;;;;;;17.90;11.20;;;;;;;-128.00;-1.00;-1.00;105460;1251;1005127;-79
2023/09/18 04:38:58;;;;;;;14.10;10.70;;;;;;;-128.00;-1.00;-1.00;105465;1251;1003940;-79
2023/09/18 04:41:25;;;;;;;12.70;10.60;;;;;;;-128.00;-1.00;-1.00;105570;1251;1003576;-79
2023/09/18 04:43:51;;;;;;;13.90;10.00;;;;;;;-128.00;-1.00;-1.00;105402;1251;1003990;-79
2023/09/18 04:46:18;;;;;;;16.60;11.20;;;;;;;-128.00;-1.00;-1.00;105576;1251;1004118;-79
2023/09/18 04:48:44;;;;;;;23.00;10.70;;;;;;;-128.00;-1.00;-1.00;105583;1250;1004414;-79
2023/09/18 04:51:12;;;;;;;12.10;9.70;;;;;;;-128.00;-1.00;-1.00;105686;1251;1003965;-79
2023/09/18 04:53:39;;;;;;;18.20;11.10;;;;;;;-128.00;-1.00;-1.00;105647;1249;1003728;-79
2023/09/18 04:56:05;;;;;;;16.00;11.20;;;;;;;-128.00;-1.00;-1.00;105674;1251;1004343;-79
2023/09/18 04:58:32;;;;;;;17.50;10.80;;;;;;;-128.00;-1.00;-1.00;105622;1251;1003800;-79
2023/09/18 05:00:59;;;;;;;15.80;9.70;;;;;;;-128.00;-1.00;-1.00;105389;1253;1004066;-79
2023/09/18 05:03:26;;;;;;;15.30;11.00;;;;;;;-128.00;-1.00;-1.00;105567;1250;1004610;-79
2023/09/18 05:05:53;;;;;;;23.70;11.40;;;;;;;-128.00;-1.00;-1.00;105487;1253;1004204;-79
2023/09/18 05:08:19;;;;;;;19.00;10.80;;;;;;;-128.00;-1.00;-1.00;105605;1250;1003772;-80
2023/09/18 05:10:46;;;;;;;16.20;10.70;;;;;;;-128.00;-1.00;-1.00;105580;1251;1005115;-80
2023/09/18 05:13:12;;;;;;;17.10;10.70;;;;;;;-128.00;-1.00;-1.00;105662;1250;1004433;-79
2023/09/18 05:15:38;;;;;;;17.30;10.10;;;;;;;-128.00;-1.00;-1.00;105639;1253;1003412;-80
2023/09/18 05:18:05;;;;;;;13.10;10.00;;;;;;;-128.00;-1.00;-1.00;105601;1251;1004412;-80
2023/09/18 05:20:34;;;;;;;14.20;11.20;;;;;;;-128.00;-1.00;-1.00;105606;1251;1004159;-80
2023/09/18 05:23:02;;;;;;;15.30;10.90;;;;;;;-128.00;-1.00;-1.00;105580;1251;1046343;-80
2023/09/18 05:25:37;;;;;;;18.30;11.20;;;;;;;-128.00;-1.00;-1.00;105475;1251;1004411;-80
2023/09/18 05:28:05;;;;;;;19.50;11.20;;;;;;;-128.00;-1.00;-1.00;105626;1251;1058331;-80
2023/09/18 05:30:34;;;;;;;15.50;11.40;;;;;;;-128.00;-1.00;-1.00;105452;1251;1003879;-80
2023/09/18 05:33:04;;;;;;;15.10;11.10;;;;;;;-128.00;-1.00;-1.00;105579;1251;1046180;-80
2023/09/18 05:35:32;;;;;;;17.90;12.40;;;;;;;-128.00;-1.00;-1.00;105530;1253;1047211;-80
2023/09/18 05:37:59;;;;;;;25.10;15.80;;;;;;;-128.00;-1.00;-1.00;105593;1251;1004522;-80
2023/09/18 05:40:29;;;;;;;19.90;15.30;;;;;;;-128.00;-1.00;-1.00;105411;1253;1003525;-80
2023/09/18 05:42:56;;;;;;;16.70;12.10;;;;;;;-128.00;-1.00;-1.00;105544;1253;1060305;-80
2023/09/18 05:45:22;;;;;;;15.20;11.50;;;;;;;-128.00;-1.00;-1.00;105602;1250;1004742;-80
2023/09/18 05:47:49;;;;;;;19.20;12.60;;;;;;;-128.00;-1.00;-1.00;105578;1251;1004396;-80
2023/09/18 05:50:16;;;;;;;19.40;13.90;;;;;;;-128.00;-1.00;-1.00;105618;1250;1004562;-80
2023/09/18 05:52:43;;;;;;;20.60;13.30;;;;;;;-128.00;-1.00;-1.00;105598;1251;1004363;-80
2023/09/18 05:55:10;;;;;;;22.20;12.80;;;;;;;-128.00;-1.00;-1.00;105561;1251;1004701;-80
2023/09/18 05:57:36;;;;;;;18.60;14.40;;;;;;;-128.00;-1.00;-1.00;105594;1251;1005333;-80
2023/09/18 06:00:05;;;;;;;13.80;12.10;;;;;;;-128.00;-1.00;-1.00;105656;1251;1004507;-80
2023/09/18 06:02:31;;;;;;;18.40;12.10;;;;;;;-128.00;-1.00;-1.00;105589;1251;1003585;-80
2023/09/18 06:04:59;;;;;;;15.60;13.20;;;;;;;-128.00;-1.00;-1.00;105565;1251;1003782;-80
2023/09/18 06:07:26;;;;;;;17.10;13.20;;;;;;;-128.00;-1.00;-1.00;105667;1250;1059419;-81
2023/09/18 06:09:53;;;;;;;20.60;15.40;;;;;;;-128.00;-1.00;-1.00;105442;1251;1005181;-80
2023/09/18 06:12:20;;;;;;;35.80;16.70;;;;;;;-128.00;-1.00;-1.00;105597;1251;1004641;-80
2023/09/18 06:14:48;;;;;;;20.30;15.10;;;;;;;-128.00;-1.00;-1.00;105603;1251;1004821;-80
2023/09/18 06:17:14;;;;;;;22.10;14.40;;;;;;;-128.00;-1.00;-1.00;105617;1250;1003898;-80
2023/09/18 06:19:41;;;;;;;19.30;14.50;;;;;;;-128.00;-1.00;-1.00;105590;1250;1005144;-80
2023/09/18 06:22:08;;;;;;;17.10;14.40;;;;;;;-128.00;-1.00;-1.00;105629;1250;1004532;-82
2023/09/18 06:24:35;;;;;;;20.40;15.70;;;;;;;-128.00;-1.00;-1.00;105621;1250;1003864;-81
2023/09/18 06:27:04;;;;;;;23.40;15.00;;;;;;;-128.00;-1.00;-1.00;105641;1251;1003851;-80
2023/09/18 06:29:34;;;;;;;19.70;15.40;;;;;;;-128.00;-1.00;-1.00;105348;1254;1057352;-80
2023/09/18 06:32:00;;;;;;;17.50;15.70;;;;;;;-128.00;-1.00;-1.00;105523;1251;1059210;-80
2023/09/18 06:34:28;;;;;;;22.10;15.30;;;;;;;-128.00;-1.00;-1.00;105572;1250;1004311;-80
2023/09/18 06:36:54;;;;;;;17.20;13.70;;;;;;;-128.00;-1.00;-1.00;105570;1251;1005064;-80
2023/09/18 06:39:23;;;;;;;23.00;13.90;;;;;;;-128.00;-1.00;-1.00;105539;1251;1005106;-80
2023/09/18 06:41:50;;;;;;;20.10;13.20;;;;;;;-128.00;-1.00;-1.00;105556;1251;1058054;-80
2023/09/18 06:44:16;;;;;;;15.40;13.80;;;;;;;-128.00;-1.00;-1.00;105534;1250;1003971;-80
2023/09/18 06:46:42;;;;;;;20.30;13.00;;;;;;;-128.00;-1.00;-1.00;105554;1255;1004810;-80
2023/09/18 06:49:09;;;;;;;16.50;13.20;;;;;;;-128.00;-1.00;-1.00;105554;1253;1004720;-80
2023/09/18 06:51:36;;;;;;;19.20;12.60;;;;;;;-128.00;-1.00;-1.00;105528;1252;1004459;-80
2023/09/18 06:54:03;;;;;;;16.80;13.20;;;;;;;-128.00;-1.00;-1.00;105611;1250;1004392;-80
2023/09/18 06:56:30;;;;;;;13.30;11.90;;;;;;;-128.00;-1.00;-1.00;105618;1251;1005383;-80
2023/09/18 06:58:57;;;;;;;15.70;12.60;;;;;;;-128.00;-1.00;-1.00;105581;1251;1004145;-80
2023/09/18 07:01:24;;;;;;;23.20;13.40;;;;;;;-128.00;-1.00;-1.00;105516;1253;1004062;-81
2023/09/18 07:03:51;;;;;;;21.70;12.80;;;;;;;-128.00;-1.00;-1.00;105634;1250;1003784;-80
2023/09/18 07:06:20;;;;;;;52.30;14.40;;;;;;;-128.00;-1.00;-1.00;105563;1250;1003746;-80
2023/09/18 07:08:49;;;;;;;40.00;13.70;;;;;;;-128.00;-1.00;-1.00;105552;1251;1059000;-81
2023/09/18 07:11:18;;;;;;;51.90;14.40;;;;;;;-128.00;-1.00;-1.00;105581;1250;1046692;-81
2023/09/18 07:13:44;;;;;;;94.70;19.90;;;;;;;-128.00;-1.00;-1.00;105601;1251;1046865;-81
2023/09/18 07:16:11;;;;;;;13.00;9.30;;;;;;;-128.00;-1.00;-1.00;105601;1251;1004871;-81
2023/09/18 07:18:38;;;;;;;16.70;9.40;;;;;;;-128.00;-1.00;-1.00;105575;1251;1004289;-81
2023/09/18 07:21:04;;;;;;;10.20;7.90;;;;;;;-128.00;-1.00;-1.00;105612;1250;1005433;-81
2023/09/18 07:23:31;;;;;;;17.50;8.90;;;;;;;-128.00;-1.00;-1.00;105548;1250;1003795;-81
2023/09/18 07:25:57;;;;;;;13.30;8.00;;;;;;;-128.00;-1.00;-1.00;105558;1251;1003653;-81
2023/09/18 07:28:24;;;;;;;9.70;7.40;;;;;;;-128.00;-1.00;-1.00;105538;1250;1004120;-81
2023/09/18 07:30:51;;;;;;;12.40;9.30;;;;;;;-128.00;-1.00;-1.00;105592;1250;1004142;-81
2023/09/18 07:33:19;;;;;;;12.30;7.60;;;;;;;-128.00;-1.00;-1.00;105507;1254;1004484;-82
2023/09/18 07:35:47;;;;;;;24.90;9.70;;;;;;;-128.00;-1.00;-1.00;105376;1251;1046608;-82
2023/09/18 07:38:14;;;;;;;47.90;13.40;;;;;;;-128.00;-1.00;-1.00;105517;1253;1004851;-82
2023/09/18 07:40:40;;;;;;;17.10;8.50;;;;;;;-128.00;-1.00;-1.00;105597;1251;1004855;-81
2023/09/18 07:43:07;;;;;;;74.70;14.40;;;;;;;-128.00;-1.00;-1.00;105573;1250;1004924;-82
2023/09/18 07:45:34;;;;;;;18.60;10.00;;;;;;;-128.00;-1.00;-1.00;105618;1251;1004434;-82
2023/09/18 07:48:01;;;;;;;16.30;8.30;;;;;;;-128.00;-1.00;-1.00;105599;1250;1003597;-82
2023/09/18 07:50:28;;;;;;;7.70;6.80;;;;;;;-128.00;-1.00;-1.00;105442;1251;1003721;-82
2023/09/18 07:52:54;;;;;;;9.90;7.50;;;;;;;-128.00;-1.00;-1.00;105597;1250;1004637;-82
2023/09/18 07:55:20;;;;;;;9.40;7.60;;;;;;;-128.00;-1.00;-1.00;105613;1250;1004112;-82
2023/09/18 07:57:49;;;;;;;22.00;9.80;;;;;;;-128.00;-1.00;-1.00;105606;1250;1004177;-82
2023/09/18 08:00:16;;;;;;;8.80;7.50;;;;;;;-128.00;-1.00;-1.00;105576;1251;1004550;-82
2023/09/18 08:02:42;;;;;;;8.70;7.60;;;;;;;-128.00;-1.00;-1.00;105534;1250;1004671;-82
2023/09/18 08:05:09;;;;;;;7.20;6.50;;;;;;;-128.00;-1.00;-1.00;105627;1250;1004477;-82
2023/09/18 08:07:36;;;;;;;12.30;6.90;;;;;;;-128.00;-1.00;-1.00;105490;1251;1004690;-83
2023/09/18 08:10:06;;;;;;;7.50;6.80;;;;;;;-128.00;-1.00;-1.00;105574;1251;1004942;-82
2023/09/18 08:12:32;;;;;;;10.70;7.70;;;;;;;-128.00;-1.00;-1.00;105475;1251;1045440;-83
2023/09/18 08:14:59;;;;;;;7.70;7.00;;;;;;;-128.00;-1.00;-1.00;105611;1250;1004407;-82
2023/09/18 08:17:25;;;;;;;7.40;6.60;;;;;;;-128.00;-1.00;-1.00;105581;1251;1004097;-82
2023/09/18 08:19:53;;;;;;;8.80;7.10;;;;;;;-128.00;-1.00;-1.00;105603;1250;1004197;-82
2023/09/18 08:22:20;;;;;;;8.80;8.00;;;;;;;-128.00;-1.00;-1.00;105580;1253;1004212;-82
2023/09/18 08:24:48;;;;;;;7.70;6.70;;;;;;;-128.00;-1.00;-1.00;105566;1253;1003924;-82
2023/09/18 08:27:16;;;;;;;;;;;;;;;-128.00;-1.00;-1.00;105592;1251;1005721;-82
2023/09/18 08:29:43;;;;;;;8.90;6.80;;;;;;;-128.00;-1.00;-1.00;105551;1251;1063396;-82
2023/09/18 08:32:10;;;;;;;10.90;6.60;;;;;;;-128.00;-1.00;-1.00;105599;1250;1005392;-82
2023/09/18 08:34:36;;;;;;;13.30;8.80;;;;;;;-128.00;-1.00;-1.00;105636;1251;1004561;-82
2023/09/18 08:37:03;;;;;;;15.50;8.00;;;;;;;-128.00;-1.00;-1.00;105627;1250;1004296;-83
2023/09/18 08:39:31;;;;;;;12.70;6.80;;;;;;;-128.00;-1.00;-1.00;105497;1252;1005176;-82
2023/09/18 08:42:02;;;;;;;16.60;7.60;;;;;;;-128.00;-1.00;-1.00;105595;1251;1005122;-82
2023/09/18 08:44:29;;;;;;;13.40;7.70;;;;;;;-128.00;-1.00;-1.00;105570;1250;1058595;-83
2023/09/18 08:46:56;;;;;;;7.80;7.10;;;;;;;-128.00;-1.00;-1.00;105521;1251;1003473;-83
2023/09/18 08:49:23;;;;;;;8.90;8.00;;;;;;;-128.00;-1.00;-1.00;105559;1251;1005021;-82
2023/09/18 08:51:54;;;;;;;8.20;7.00;;;;;;;-128.00;-1.00;-1.00;105619;1250;1004981;-83
2023/09/18 08:54:21;;;;;;;8.80;7.40;;;;;;;-128.00;-1.00;-1.00;105639;1250;1061849;-82
2023/09/18 08:56:48;;;;;;;7.30;6.60;;;;;;;-128.00;-1.00;-1.00;105517;1251;1004902;-82
2023/09/18 08:59:14;;;;;;;8.20;7.40;;;;;;;-128.00;-1.00;-1.00;105442;1251;1004785;-82
2023/09/18 09:01:40;;;;;;;9.00;8.10;;;;;;;-128.00;-1.00;-1.00;105449;1251;1003640;-82
2023/09/18 09:04:07;;;;;;;13.00;8.60;;;;;;;-128.00;-1.00;-1.00;105620;1251;1003676;-81
2023/09/18 09:06:33;;;;;;;12.90;8.40;;;;;;;-128.00;-1.00;-1.00;105563;1253;1005219;-82
2023/09/18 09:09:01;;;;;;;10.30;8.00;;;;;;;-128.00;-1.00;-1.00;105586;1250;1004821;-82
2023/09/18 09:11:28;;;;;;;10.00;8.00;;;;;;;-128.00;-1.00;-1.00;105567;1250;1004264;-82
2023/09/18 09:14:09;;;;;;;10.40;9.30;;;;;;;-128.00;-1.00;-1.00;105581;1250;1004418;-82
2023/09/18 09:16:35;;;;;;;10.60;9.40;;;;;;;-128.00;-1.00;-1.00;105582;1250;1048314;-81
2023/09/18 09:19:02;;;;;;;8.30;7.50;;;;;;;-128.00;-1.00;-1.00;105613;1251;1004075;-81
2023/09/18 09:21:39;;;;;;;9.00;7.70;;;;;;;-128.00;-1.00;-1.00;105426;1254;1004280;-82
2023/09/18 09:24:05;;;;;;;8.60;7.60;;;;;;;-128.00;-1.00;-1.00;105527;1252;1061142;-82
2023/09/18 09:26:32;;;;;;;17.30;7.70;;;;;;;-128.00;-1.00;-1.00;105569;1250;1003941;-82
2023/09/18 09:29:05;;;;;;;12.20;7.90;;;;;;;-128.00;-1.00;-1.00;105629;1250;1004261;-82
2023/09/18 09:31:32;;;;;;;15.20;8.30;;;;;;;-128.00;-1.00;-1.00;105426;1252;1061877;-82
2023/09/18 09:34:01;;;;;;;9.40;6.80;;;;;;;-128.00;-1.00;-1.00;105568;1255;1003881;-82
2023/09/18 09:36:29;;;;;;;8.80;7.90;;;;;;;-128.00;-1.00;-1.00;105578;1251;1060324;-82
2023/09/18 09:38:59;;;;;;;7.70;6.90;;;;;;;-128.00;-1.00;-1.00;105349;1251;1045278;-82
2023/09/18 09:41:27;;;;;;;9.30;7.10;;;;;;;-128.00;-1.00;-1.00;105594;1250;1047875;-82
2023/09/18 09:43:55;;;;;;;;;;;;;;;-128.00;-1.00;-1.00;105519;1250;1061679;-82
2023/09/18 09:46:25;;;;;;;8.30;6.80;;;;;;;-128.00;-1.00;-1.00;105562;1251;1058369;-82
2023/09/18 09:49:05;;;;;;;10.80;6.90;;;;;;;-128.00;-1.00;-1.00;105521;1250;1058633;-82
2023/09/18 09:51:31;;;;;;;8.80;6.50;;;;;;;-128.00;-1.00;-1.00;105577;1251;1044289;-82
2023/09/18 09:53:59;;;;;;;8.40;6.80;;;;;;;-128.00;-1.00;-1.00;105518;1251;1003780;-82
2023/09/18 09:56:42;;;;;;;6.60;5.90;;;;;;;-128.00;-1.00;-1.00;105658;1250;1003433;-82
2023/09/18 09:59:08;;;;;;;8.00;6.60;;;;;;;-128.00;-1.00;-1.00;105596;1251;1057978;-82
2023/09/18 10:01:35;;;;;;;12.00;6.30;;;;;;;-128.00;-1.00;-1.00;105576;1251;1005073;-81
2023/09/18 10:04:07;;;;;;;9.40;6.30;;;;;;;-128.00;-1.00;-1.00;105595;1251;1003439;-82
2023/09/18 10:06:34;;;;;;;7.90;7.00;;;;;;;-128.00;-1.00;-1.00;105615;1251;1046812;-82
2023/09/18 10:09:03;;;;;;;8.70;7.40;;;;;;;-128.00;-1.00;-1.00;105618;1250;1003944;-82
2023/09/18 10:11:30;;;;;;;10.20;6.60;;;;;;;-128.00;-1.00;-1.00;105625;1251;1058071;-81
2023/09/18 10:14:00;;;;;;;10.20;6.30;;;;;;;-128.00;-1.00;-1.00;105543;1251;1003850;-82
2023/09/18 10:16:29;;;;;;;9.10;6.00;;;;;;;-128.00;-1.00;-1.00;105586;1251;1044426;-82
2023/09/18 10:19:14;;;;;;;12.50;6.50;;;;;;;-128.00;-1.00;-1.00;105406;1251;1004812;-82
2023/09/18 10:21:55;;;;;;;6.90;6.20;;;;;;;-128.00;-1.00;-1.00;105551;1251;1062161;-82
2023/09/18 10:24:25;;;;;;;12.70;9.30;;;;;;;-128.00;-1.00;-1.00;105500;1254;1058213;-82
2023/09/18 10:27:00;;;;;;;10.20;7.20;;;;;;;-128.00;-1.00;-1.00;105498;1251;1059292;-83
2023/09/18 10:29:28;;;;;;;8.50;7.50;;;;;;;-128.00;-1.00;-1.00;105479;1250;1044079;-82
2023/09/18 10:31:54;;;;;;;8.40;5.50;;;;;;;-128.00;-1.00;-1.00;105566;1251;1004201;-82
2023/09/18 10:34:23;;;;;;;11.00;7.60;;;;;;;-128.00;-1.00;-1.00;105634;1250;1004262;-82
2023/09/18 10:36:51;;;;;;;;;;;;;;;-128.00;-1.00;-1.00;105536;1253;1057658;-83
2023/09/18 10:39:19;;;;;;;9.30;6.40;;;;;;;-128.00;-1.00;-1.00;105602;1250;1004012;-82
2023/09/18 10:41:47;;;;;;;6.60;5.40;;;;;;;-128.00;-1.00;-1.00;105679;1249;1004567;-82
2023/09/18 10:44:14;;;;;;;7.80;6.10;;;;;;;-128.00;-1.00;-1.00;105611;1251;1004639;-82
2023/09/18 10:46:40;;;;;;;7.90;7.00;;;;;;;-128.00;-1.00;-1.00;105589;1250;1005820;-82
2023/09/18 10:49:07;;;;;;;10.80;5.90;;;;;;;-128.00;-1.00;-1.00;105593;1251;1004466;-82
2023/09/18 10:51:33;;;;;;;8.70;6.40;;;;;;;-128.00;-1.00;-1.00;105509;1254;1003271;-82
2023/09/18 10:54:00;;;;;;;8.30;6.60;;;;;;;-128.00;-1.00;-1.00;105605;1250;1004896;-82
2023/09/18 10:56:26;;;;;;;7.40;6.10;;;;;;;-128.00;-1.00;-1.00;105512;1251;1004470;-82
2023/09/18 10:58:58;;;;;;;8.60;6.60;;;;;;;-128.00;-1.00;-1.00;105577;1251;1004202;-82
2023/09/18 11:01:27;;;;;;;8.70;6.50;;;;;;;-128.00;-1.00;-1.00;105471;1253;1058382;-82
2023/09/18 11:03:59;;;;;;;8.20;6.80;;;;;;;-128.00;-1.00;-1.00;105513;1253;1059509;-82
2023/09/18 11:06:26;;;;;;;8.60;6.60;;;;;;;-128.00;-1.00;-1.00;105543;1253;1045055;-82
2023/09/18 11:09:03;;;;;;;7.40;6.50;;;;;;;-128.00;-1.00;-1.00;105524;1254;1003820;-82
2023/09/18 11:11:32;;;;;;;8.90;6.60;;;;;;;-128.00;-1.00;-1.00;105555;1253;1063112;-82